createdAt,value
2018-06-22T00:00:04.654Z,1011.39
2018-06-22T00:00:45.191Z,1011.38
2018-06-22T00:01:25.814Z,1011.4
2018-06-22T00:02:06.356Z,1011.41
2018-06-22T00:02:46.867Z,1011.45
2018-06-22T00:03:27.430Z,1011.41
2018-06-22T00:04:08.007Z,1011.41
2018-06-22T00:04:48.585Z,1011.44
2018-06-22T00:05:29.105Z,1011.39
2018-06-22T00:06:09.653Z,1011.4
2018-06-22T00:06:50.239Z,1011.37
2018-06-22T00:07:30.805Z,1011.39
2018-06-22T00:08:11.365Z,1011.4
2018-06-22T00:08:51.938Z,1011.37
2018-06-22T00:09:32.507Z,1011.35
2018-06-22T00:10:13.094Z,1011.36
2018-06-22T00:10:53.619Z,1011.34
2018-06-22T00:11:34.176Z,1011.38
2018-06-22T00:12:14.718Z,1011.37
2018-06-22T00:12:55.255Z,1011.34
2018-06-22T00:13:35.808Z,1011.3
2018-06-22T00:14:16.432Z,1011.36
2018-06-22T00:14:56.988Z,1011.31
2018-06-22T00:15:37.576Z,1011.31
2018-06-22T00:16:18.157Z,1011.35
2018-06-22T00:16:58.709Z,1011.34
2018-06-22T00:17:39.288Z,1011.35
2018-06-22T00:18:19.851Z,1011.34
2018-06-22T00:19:00.411Z,1011.33
2018-06-22T00:19:40.973Z,1011.37
2018-06-22T00:20:21.583Z,1011.34
2018-06-22T00:21:02.135Z,1011.31
2018-06-22T00:21:42.687Z,1011.34
2018-06-22T00:22:23.258Z,1011.35
2018-06-22T00:23:03.823Z,1011.37
2018-06-22T00:23:44.385Z,1011.36
2018-06-22T00:24:24.972Z,1011.36
2018-06-22T00:25:05.524Z,1011.37
2018-06-22T00:25:46.078Z,1011.34
2018-06-22T00:26:26.629Z,1011.35
2018-06-22T00:27:07.192Z,1011.34
2018-06-22T00:27:47.738Z,1011.33
2018-06-22T00:28:28.300Z,1011.31
2018-06-22T00:29:08.881Z,1011.35
2018-06-22T00:29:49.430Z,1011.32
2018-06-22T00:30:29.985Z,1011.34
2018-06-22T00:31:10.559Z,1011.33
2018-06-22T00:31:51.121Z,1011.32
2018-06-22T00:32:31.682Z,1011.35
2018-06-22T00:33:12.261Z,1011.31
2018-06-22T00:33:52.848Z,1011.35
2018-06-22T00:34:33.438Z,1011.34
2018-06-22T00:35:13.964Z,1011.33
2018-06-22T00:35:54.526Z,1011.32
2018-06-22T00:36:35.075Z,1011.38
2018-06-22T00:37:15.644Z,1011.38
2018-06-22T00:37:56.202Z,1011.36
2018-06-22T00:38:36.763Z,1011.38
2018-06-22T00:39:17.316Z,1011.38
2018-06-22T00:39:57.885Z,1011.32
2018-06-22T00:40:38.467Z,1011.34
2018-06-22T00:41:19.023Z,1011.35
2018-06-22T00:41:59.577Z,1011.36
2018-06-22T00:42:40.164Z,1011.31
2018-06-22T00:43:20.722Z,1011.3
2018-06-22T00:44:01.292Z,1011.32
2018-06-22T00:44:41.847Z,1011.27
2018-06-22T00:45:22.562Z,1011.35
2018-06-22T00:46:02.976Z,1011.36
2018-06-22T00:46:43.517Z,1011.29
2018-06-22T00:47:24.085Z,1011.3
2018-06-22T00:48:04.672Z,1011.29
2018-06-22T00:48:45.236Z,1011.31
2018-06-22T00:49:25.778Z,1011.31
2018-06-22T00:50:06.373Z,1011.25
2018-06-22T00:50:46.973Z,1011.24
2018-06-22T00:51:27.508Z,1011.27
2018-06-22T00:52:08.065Z,1011.2
2018-06-22T00:52:48.654Z,1011.21
2018-06-22T00:53:29.205Z,1011.24
2018-06-22T00:54:09.765Z,1011.2
2018-06-22T00:54:50.342Z,1011.18
2018-06-22T00:55:30.911Z,1011.24
2018-06-22T00:56:11.454Z,1011.2
2018-06-22T00:56:52.005Z,1011.2
2018-06-22T00:57:32.564Z,1011.19
2018-06-22T00:58:13.136Z,1011.16
2018-06-22T00:58:53.692Z,1011.17
2018-06-22T00:59:34.244Z,1011.15
2018-06-22T01:00:14.832Z,1011.18
2018-06-22T01:00:55.416Z,1011.19
2018-06-22T01:01:35.969Z,1011.2
2018-06-22T01:02:16.526Z,1011.17
2018-06-22T01:02:57.044Z,1011.19
2018-06-22T01:03:37.617Z,1011.18
2018-06-22T01:04:18.193Z,1011.19
2018-06-22T01:04:58.743Z,1011.18
2018-06-22T01:05:39.294Z,1011.15
2018-06-22T01:06:19.841Z,1011.09
2018-06-22T01:07:00.401Z,1011.17
2018-06-22T01:07:40.950Z,1011.1
2018-06-22T01:08:21.505Z,1011.15
2018-06-22T01:09:02.073Z,1011.11
2018-06-22T01:09:42.794Z,1011.13
2018-06-22T01:10:23.322Z,1011.06
2018-06-22T01:11:03.881Z,1011.16
2018-06-22T01:11:44.458Z,1011.08
2018-06-22T01:12:25.000Z,1011.04
2018-06-22T01:13:05.613Z,1011.03
2018-06-22T01:13:46.187Z,1011.04
2018-06-22T01:14:26.740Z,1011.01
2018-06-22T01:15:07.309Z,1011.08
2018-06-22T01:15:47.858Z,1011.02
2018-06-22T01:16:28.423Z,1011.06
2018-06-22T01:17:08.961Z,1011.08
2018-06-22T01:17:49.514Z,1011.1
2018-06-22T01:18:30.099Z,1011.07
2018-06-22T01:19:10.698Z,1011.09
2018-06-22T01:19:51.234Z,1011.13
2018-06-22T01:20:31.794Z,1011.09
2018-06-22T01:21:12.362Z,1011.11
2018-06-22T01:21:52.922Z,1011.11
2018-06-22T01:22:33.481Z,1011.12
2018-06-22T01:23:14.032Z,1011.1
2018-06-22T01:23:54.594Z,1011.11
2018-06-22T01:24:35.162Z,1011.13
2018-06-22T01:25:15.713Z,1011.12
2018-06-22T01:25:56.290Z,1011.09
2018-06-22T01:26:36.848Z,1011.11
2018-06-22T01:27:17.411Z,1011.13
2018-06-22T01:27:57.983Z,1011.1
2018-06-22T01:28:38.526Z,1011.07
2018-06-22T01:29:19.125Z,1011.09
2018-06-22T01:29:59.702Z,1011.09
2018-06-22T01:30:40.258Z,1011.09
2018-06-22T01:31:20.806Z,1011.07
2018-06-22T01:32:01.368Z,1011.06
2018-06-22T01:32:41.931Z,1011.07
2018-06-22T01:33:22.487Z,1011.07
2018-06-22T01:34:03.054Z,1011.04
2018-06-22T01:34:43.585Z,1011
2018-06-22T01:35:24.152Z,1011.04
2018-06-22T01:36:04.697Z,1010.98
2018-06-22T01:36:45.261Z,1011.01
2018-06-22T01:37:25.828Z,1011.02
2018-06-22T01:38:06.391Z,1011.05
2018-06-22T01:38:46.942Z,1011.06
2018-06-22T01:39:27.516Z,1011.03
2018-06-22T01:40:08.063Z,1011.01
2018-06-22T01:40:48.629Z,1011.02
2018-06-22T01:41:29.188Z,1011
2018-06-22T01:42:09.729Z,1011.02
2018-06-22T01:42:50.278Z,1011.05
2018-06-22T01:43:30.838Z,1011
2018-06-22T01:44:11.402Z,1011
2018-06-22T01:44:51.963Z,1011.03
2018-06-22T01:45:32.531Z,1011.01
2018-06-22T01:46:13.093Z,1010.99
2018-06-22T01:46:53.643Z,1010.98
2018-06-22T01:47:34.205Z,1011
2018-06-22T01:48:14.807Z,1011.03
2018-06-22T01:48:55.360Z,1011.01
2018-06-22T01:49:35.915Z,1011.01
2018-06-22T01:50:16.469Z,1011.05
2018-06-22T01:50:57.035Z,1011
2018-06-22T01:51:37.604Z,1010.99
2018-06-22T01:52:18.161Z,1010.96
2018-06-22T01:52:58.712Z,1010.97
2018-06-22T01:53:39.351Z,1011.02
2018-06-22T01:54:19.842Z,1011.02
2018-06-22T01:55:00.393Z,1010.99
2018-06-22T01:55:40.982Z,1011.02
2018-06-22T01:56:21.503Z,1011.02
2018-06-22T01:57:02.049Z,1011.06
2018-06-22T01:57:42.603Z,1010.97
2018-06-22T01:58:23.153Z,1010.95
2018-06-22T01:59:03.707Z,1010.94
2018-06-22T01:59:44.310Z,1011.03
2018-06-22T02:00:24.866Z,1010.96
2018-06-22T02:01:05.463Z,1010.99
2018-06-22T02:01:46.023Z,1011.02
2018-06-22T02:02:26.596Z,1011.01
2018-06-22T02:03:07.166Z,1010.93
2018-06-22T02:03:47.715Z,1010.97
2018-06-22T02:04:28.270Z,1011
2018-06-22T02:05:08.838Z,1010.98
2018-06-22T02:05:49.481Z,1011
2018-06-22T02:06:29.947Z,1010.93
2018-06-22T02:07:10.544Z,1010.97
2018-06-22T02:07:51.092Z,1011
2018-06-22T02:08:31.641Z,1010.93
2018-06-22T02:09:12.208Z,1010.99
2018-06-22T02:09:52.761Z,1010.94
2018-06-22T02:10:33.322Z,1010.98
2018-06-22T02:11:13.888Z,1011.01
2018-06-22T02:11:54.447Z,1010.94
2018-06-22T02:12:35.037Z,1010.99
2018-06-22T02:13:15.591Z,1010.98
2018-06-22T02:13:56.168Z,1011
2018-06-22T02:14:36.709Z,1011.01
2018-06-22T02:15:17.284Z,1011.01
2018-06-22T02:15:57.849Z,1011.04
2018-06-22T02:16:38.402Z,1010.99
2018-06-22T02:17:18.952Z,1011.1
2018-06-22T02:17:59.623Z,1011.02
2018-06-22T02:18:40.180Z,1011.01
2018-06-22T02:19:20.729Z,1011.01
2018-06-22T02:20:01.281Z,1011.03
2018-06-22T02:20:41.841Z,1010.99
2018-06-22T02:21:22.398Z,1011.02
2018-06-22T02:22:02.969Z,1011.08
2018-06-22T02:22:43.521Z,1010.99
2018-06-22T02:23:24.092Z,1011.02
2018-06-22T02:24:04.648Z,1011.04
2018-06-22T02:24:45.311Z,1010.97
2018-06-22T02:25:25.891Z,1011.01
2018-06-22T02:26:06.438Z,1011.02
2018-06-22T02:26:46.992Z,1010.96
2018-06-22T02:27:27.556Z,1011
2018-06-22T02:28:08.113Z,1011
2018-06-22T02:28:48.674Z,1011
2018-06-22T02:29:29.256Z,1010.96
2018-06-22T02:30:09.821Z,1010.98
2018-06-22T02:30:50.386Z,1010.94
2018-06-22T02:31:30.967Z,1010.97
2018-06-22T02:32:11.531Z,1011.01
2018-06-22T02:32:52.101Z,1010.93
2018-06-22T02:33:32.668Z,1011.06
2018-06-22T02:34:13.234Z,1010.94
2018-06-22T02:34:53.781Z,1010.96
2018-06-22T02:35:34.344Z,1011
2018-06-22T02:36:14.877Z,1011.01
2018-06-22T02:36:55.431Z,1011.02
2018-06-22T02:37:35.993Z,1010.95
2018-06-22T02:38:16.534Z,1010.99
2018-06-22T02:38:57.078Z,1010.99
2018-06-22T02:39:37.636Z,1010.98
2018-06-22T02:40:18.182Z,1010.99
2018-06-22T02:40:58.746Z,1011.04
2018-06-22T02:41:39.303Z,1010.94
2018-06-22T02:42:19.836Z,1011.01
2018-06-22T02:43:00.386Z,1010.98
2018-06-22T02:43:40.948Z,1010.99
2018-06-22T02:44:21.487Z,1010.98
2018-06-22T02:45:02.056Z,1011
2018-06-22T02:45:42.622Z,1010.99
2018-06-22T02:46:23.207Z,1011
2018-06-22T02:47:03.765Z,1011.01
2018-06-22T02:47:44.321Z,1010.96
2018-06-22T02:48:24.880Z,1010.96
2018-06-22T02:49:05.441Z,1010.92
2018-06-22T02:49:46.002Z,1010.96
2018-06-22T02:50:26.555Z,1010.94
2018-06-22T02:51:07.116Z,1010.86
2018-06-22T02:51:47.667Z,1010.98
2018-06-22T02:52:28.208Z,1010.91
2018-06-22T02:53:08.752Z,1010.9
2018-06-22T02:53:49.314Z,1010.9
2018-06-22T02:54:29.867Z,1010.91
2018-06-22T02:55:10.427Z,1010.75
2018-06-22T02:55:50.997Z,1010.85
2018-06-22T02:56:31.558Z,1010.87
2018-06-22T02:57:12.145Z,1010.9
2018-06-22T02:57:52.696Z,1010.9
2018-06-22T02:58:33.248Z,1010.86
2018-06-22T02:59:13.802Z,1010.85
2018-06-22T02:59:54.417Z,1010.84
2018-06-22T03:00:34.899Z,1010.88
2018-06-22T03:01:15.473Z,1010.9
2018-06-22T03:01:56.114Z,1010.85
2018-06-22T03:02:36.691Z,1010.92
2018-06-22T03:03:17.239Z,1010.86
2018-06-22T03:03:57.785Z,1010.92
2018-06-22T03:04:38.334Z,1010.93
2018-06-22T03:05:18.921Z,1010.86
2018-06-22T03:05:59.486Z,1010.85
2018-06-22T03:06:40.040Z,1010.87
2018-06-22T03:07:20.598Z,1010.88
2018-06-22T03:08:01.181Z,1010.9
2018-06-22T03:08:41.746Z,1010.88
2018-06-22T03:09:22.275Z,1010.85
2018-06-22T03:10:02.825Z,1010.86
2018-06-22T03:10:43.406Z,1010.85
2018-06-22T03:11:23.988Z,1010.85
2018-06-22T03:12:04.546Z,1010.85
2018-06-22T03:12:45.129Z,1010.78
2018-06-22T03:13:25.674Z,1010.78
2018-06-22T03:14:06.295Z,1010.84
2018-06-22T03:14:46.868Z,1010.81
2018-06-22T03:15:27.421Z,1010.84
2018-06-22T03:16:07.963Z,1010.86
2018-06-22T03:16:48.542Z,1010.82
2018-06-22T03:17:29.086Z,1010.82
2018-06-22T03:18:09.630Z,1010.8
2018-06-22T03:18:50.197Z,1010.78
2018-06-22T03:19:30.766Z,1010.85
2018-06-22T03:20:11.325Z,1010.84
2018-06-22T03:20:51.849Z,1010.82
2018-06-22T03:21:32.437Z,1010.84
2018-06-22T03:22:13.065Z,1010.85
2018-06-22T03:22:53.572Z,1010.84
2018-06-22T03:23:34.136Z,1010.83
2018-06-22T03:24:14.688Z,1010.84
2018-06-22T03:24:55.262Z,1010.84
2018-06-22T03:25:35.856Z,1010.8
2018-06-22T03:26:16.411Z,1010.86
2018-06-22T03:26:56.976Z,1010.84
2018-06-22T03:27:37.546Z,1010.83
2018-06-22T03:28:18.156Z,1010.84
2018-06-22T03:28:58.733Z,1010.83
2018-06-22T03:29:39.301Z,1010.83
2018-06-22T03:30:19.853Z,1010.76
2018-06-22T03:31:00.406Z,1010.78
2018-06-22T03:31:40.971Z,1010.81
2018-06-22T03:32:21.527Z,1010.86
2018-06-22T03:33:02.115Z,1010.79
2018-06-22T03:33:42.712Z,1010.81
2018-06-22T03:34:23.263Z,1010.81
2018-06-22T03:35:03.819Z,1010.82
2018-06-22T03:35:44.373Z,1010.83
2018-06-22T03:36:24.916Z,1010.78
2018-06-22T03:37:05.467Z,1010.75
2018-06-22T03:39:36.803Z,1010.78
2018-06-22T03:40:17.350Z,1010.81
2018-06-22T03:40:57.902Z,1010.75
2018-06-22T03:41:38.465Z,1010.79
2018-06-22T03:42:19.013Z,1010.79
2018-06-22T03:42:59.593Z,1010.79
2018-06-22T03:43:40.200Z,1010.78
2018-06-22T03:44:20.767Z,1010.79
2018-06-22T03:45:01.324Z,1010.8
2018-06-22T03:45:41.869Z,1010.83
2018-06-22T03:46:22.409Z,1010.83
2018-06-22T03:47:03.040Z,1010.8
2018-06-22T03:47:43.604Z,1010.72
2018-06-22T03:48:24.166Z,1010.73
2018-06-22T03:49:04.710Z,1010.78
2018-06-22T03:49:45.270Z,1010.77
2018-06-22T03:50:25.837Z,1010.75
2018-06-22T03:51:06.416Z,1010.78
2018-06-22T03:51:46.937Z,1010.79
2018-06-22T03:52:27.584Z,1010.75
2018-06-22T03:53:08.205Z,1010.77
2018-06-22T03:53:48.775Z,1010.76
2018-06-22T03:54:29.352Z,1010.75
2018-06-22T03:55:09.919Z,1010.77
2018-06-22T03:55:50.500Z,1010.77
2018-06-22T03:56:31.052Z,1010.76
2018-06-22T03:57:11.621Z,1010.78
2018-06-22T03:57:52.169Z,1010.77
2018-06-22T03:58:32.729Z,1010.74
2018-06-22T03:59:13.281Z,1010.79
2018-06-22T03:59:53.839Z,1010.78
2018-06-22T04:00:34.386Z,1010.74
2018-06-22T04:01:14.935Z,1010.82
2018-06-22T04:01:55.490Z,1010.77
2018-06-22T04:02:36.047Z,1010.79
2018-06-22T04:03:16.621Z,1010.81
2018-06-22T04:03:57.176Z,1010.76
2018-06-22T04:04:37.739Z,1010.81
2018-06-22T04:05:18.329Z,1010.84
2018-06-22T04:05:58.870Z,1010.75
2018-06-22T04:06:39.434Z,1010.76
2018-06-22T04:07:19.995Z,1010.76
2018-06-22T04:08:00.538Z,1010.78
2018-06-22T04:08:41.088Z,1010.8
2018-06-22T04:09:21.664Z,1010.78
2018-06-22T04:10:02.211Z,1010.77
2018-06-22T04:10:42.757Z,1010.81
2018-06-22T04:11:23.306Z,1010.77
2018-06-22T04:12:03.880Z,1010.74
2018-06-22T04:12:44.469Z,1010.79
2018-06-22T04:13:25.041Z,1010.79
2018-06-22T04:14:05.581Z,1010.8
2018-06-22T04:14:46.144Z,1010.71
2018-06-22T04:15:26.705Z,1010.76
2018-06-22T04:16:07.253Z,1010.76
2018-06-22T04:16:47.836Z,1010.77
2018-06-22T04:17:28.382Z,1010.8
2018-06-22T04:18:09.023Z,1010.85
2018-06-22T04:18:49.461Z,1010.75
2018-06-22T04:19:30.017Z,1010.77
2018-06-22T04:20:10.567Z,1010.74
2018-06-22T04:20:51.120Z,1010.78
2018-06-22T04:21:31.668Z,1010.79
2018-06-22T04:22:12.241Z,1010.78
2018-06-22T04:22:52.814Z,1010.75
2018-06-22T04:23:33.378Z,1010.79
2018-06-22T04:24:13.942Z,1010.79
2018-06-22T04:24:54.513Z,1010.78
2018-06-22T04:25:35.079Z,1010.78
2018-06-22T04:26:15.643Z,1010.75
2018-06-22T04:26:56.198Z,1010.76
2018-06-22T04:27:36.758Z,1010.77
2018-06-22T04:28:17.307Z,1010.79
2018-06-22T04:28:57.871Z,1010.77
2018-06-22T04:29:38.446Z,1010.78
2018-06-22T04:30:19.015Z,1010.86
2018-06-22T04:30:59.571Z,1010.78
2018-06-22T04:31:40.124Z,1010.85
2018-06-22T04:32:20.669Z,1010.77
2018-06-22T04:33:01.214Z,1010.78
2018-06-22T04:33:41.772Z,1010.77
2018-06-22T04:34:22.330Z,1010.78
2018-06-22T04:35:02.889Z,1010.76
2018-06-22T04:35:43.455Z,1010.81
2018-06-22T04:36:24.033Z,1010.76
2018-06-22T04:37:04.625Z,1010.78
2018-06-22T04:37:45.187Z,1010.81
2018-06-22T04:38:25.734Z,1010.71
2018-06-22T04:39:06.306Z,1010.75
2018-06-22T04:39:46.866Z,1010.78
2018-06-22T04:40:27.417Z,1010.76
2018-06-22T04:41:07.984Z,1010.77
2018-06-22T04:41:48.545Z,1010.71
2018-06-22T04:42:29.252Z,1010.7
2018-06-22T04:43:09.749Z,1010.77
2018-06-22T04:43:50.299Z,1010.69
2018-06-22T04:44:30.870Z,1010.69
2018-06-22T04:45:11.439Z,1010.7
2018-06-22T04:45:51.982Z,1010.71
2018-06-22T04:46:32.540Z,1010.72
2018-06-22T04:47:13.084Z,1010.7
2018-06-22T04:47:53.634Z,1010.72
2018-06-22T04:48:34.193Z,1010.73
2018-06-22T04:49:14.740Z,1010.69
2018-06-22T04:49:55.295Z,1010.69
2018-06-22T04:50:35.874Z,1010.71
2018-06-22T04:51:16.457Z,1010.69
2018-06-22T04:51:57.006Z,1010.71
2018-06-22T04:52:37.576Z,1010.69
2018-06-22T04:53:18.130Z,1010.75
2018-06-22T04:53:58.729Z,1010.71
2018-06-22T04:54:39.553Z,1010.7
2018-06-22T04:55:20.122Z,1010.65
2018-06-22T04:56:00.656Z,1010.73
2018-06-22T04:56:41.211Z,1010.72
2018-06-22T04:57:21.776Z,1010.76
2018-06-22T04:58:02.341Z,1010.65
2018-06-22T04:58:42.993Z,1010.76
2018-06-22T04:59:23.594Z,1010.75
2018-06-22T05:00:04.156Z,1010.74
2018-06-22T05:00:44.712Z,1010.76
2018-06-22T05:01:25.286Z,1010.78
2018-06-22T05:02:05.849Z,1010.76
2018-06-22T05:02:46.398Z,1010.72
2018-06-22T05:03:26.960Z,1010.79
2018-06-22T05:04:07.532Z,1010.73
2018-06-22T05:04:48.099Z,1010.73
2018-06-22T05:05:28.649Z,1010.76
2018-06-22T05:06:09.254Z,1010.74
2018-06-22T05:06:49.759Z,1010.75
2018-06-22T05:07:30.324Z,1010.73
2018-06-22T05:08:10.884Z,1010.73
2018-06-22T05:08:51.449Z,1010.7
2018-06-22T05:09:32.010Z,1010.71
2018-06-22T05:10:12.563Z,1010.72
2018-06-22T05:10:53.135Z,1010.73
2018-06-22T05:11:33.702Z,1010.75
2018-06-22T05:12:14.265Z,1010.73
2018-06-22T05:12:54.830Z,1010.73
2018-06-22T05:13:35.377Z,1010.73
2018-06-22T05:14:15.962Z,1010.75
2018-06-22T05:14:56.513Z,1010.71
2018-06-22T05:15:37.078Z,1010.76
2018-06-22T05:16:17.616Z,1010.71
2018-06-22T05:16:58.182Z,1010.67
2018-06-22T05:17:38.742Z,1010.74
2018-06-22T05:18:19.303Z,1010.74
2018-06-22T05:18:59.879Z,1010.75
2018-06-22T05:19:40.439Z,1010.76
2018-06-22T05:20:21.139Z,1010.76
2018-06-22T05:21:01.702Z,1010.78
2018-06-22T05:21:42.284Z,1010.79
2018-06-22T05:22:22.849Z,1010.81
2018-06-22T05:23:03.425Z,1010.83
2018-06-22T05:23:43.993Z,1010.8
2018-06-22T05:24:24.529Z,1010.81
2018-06-22T05:25:05.092Z,1010.83
2018-06-22T05:25:45.640Z,1010.8
2018-06-22T05:26:26.179Z,1010.77
2018-06-22T05:27:06.728Z,1010.81
2018-06-22T05:27:47.275Z,1010.78
2018-06-22T05:28:27.834Z,1010.78
2018-06-22T05:29:08.417Z,1010.8
2018-06-22T05:29:48.976Z,1010.8
2018-06-22T05:30:29.533Z,1010.76
2018-06-22T05:31:10.106Z,1010.77
2018-06-22T05:31:50.671Z,1010.79
2018-06-22T05:32:31.214Z,1010.78
2018-06-22T05:33:11.791Z,1010.78
2018-06-22T05:33:52.400Z,1010.76
2018-06-22T05:34:32.957Z,1010.78
2018-06-22T05:35:13.524Z,1010.78
2018-06-22T05:35:54.090Z,1010.77
2018-06-22T05:36:34.644Z,1010.73
2018-06-22T05:37:15.203Z,1010.76
2018-06-22T05:37:55.768Z,1010.76
2018-06-22T05:38:36.346Z,1010.75
2018-06-22T05:39:16.905Z,1010.79
2018-06-22T05:39:57.465Z,1010.69
2018-06-22T05:40:38.020Z,1010.71
2018-06-22T05:41:18.592Z,1010.71
2018-06-22T05:41:59.171Z,1010.75
2018-06-22T05:42:39.709Z,1010.77
2018-06-22T05:43:20.270Z,1010.67
2018-06-22T05:44:00.832Z,1010.7
2018-06-22T05:44:41.403Z,1010.73
2018-06-22T05:45:21.954Z,1010.69
2018-06-22T05:46:02.519Z,1010.73
2018-06-22T05:46:43.058Z,1010.72
2018-06-22T05:47:23.613Z,1010.71
2018-06-22T05:48:04.159Z,1010.72
2018-06-22T05:48:44.723Z,1010.68
2018-06-22T05:49:25.265Z,1010.73
2018-06-22T05:50:05.861Z,1010.77
2018-06-22T05:50:46.531Z,1010.73
2018-06-22T05:51:26.975Z,1010.69
2018-06-22T05:52:07.540Z,1010.71
2018-06-22T05:52:48.154Z,1010.74
2018-06-22T05:53:28.700Z,1010.72
2018-06-22T05:54:09.251Z,1010.74
2018-06-22T05:54:49.829Z,1010.78
2018-06-22T05:55:30.407Z,1010.81
2018-06-22T05:56:10.951Z,1010.77
2018-06-22T05:56:51.558Z,1010.81
2018-06-22T05:57:32.055Z,1010.76
2018-06-22T05:58:12.649Z,1010.77
2018-06-22T05:58:53.197Z,1010.8
2018-06-22T05:59:33.752Z,1010.74
2018-06-22T06:00:14.317Z,1010.78
2018-06-22T06:00:54.873Z,1010.79
2018-06-22T06:01:35.439Z,1010.75
2018-06-22T06:02:15.981Z,1010.78
2018-06-22T06:02:56.532Z,1010.79
2018-06-22T06:03:37.107Z,1010.81
2018-06-22T06:04:17.643Z,1010.83
2018-06-22T06:04:58.207Z,1010.81
2018-06-22T06:05:38.783Z,1010.84
2018-06-22T06:06:19.340Z,1010.78
2018-06-22T06:06:59.889Z,1010.82
2018-06-22T06:07:40.456Z,1010.82
2018-06-22T06:08:21.015Z,1010.87
2018-06-22T06:09:01.638Z,1010.81
2018-06-22T06:09:42.227Z,1010.8
2018-06-22T06:10:22.783Z,1010.82
2018-06-22T06:11:03.384Z,1010.82
2018-06-22T06:11:43.918Z,1010.81
2018-06-22T06:12:24.564Z,1010.76
2018-06-22T06:13:05.058Z,1010.81
2018-06-22T06:13:45.597Z,1010.8
2018-06-22T06:14:26.176Z,1010.78
2018-06-22T06:15:06.722Z,1010.77
2018-06-22T06:15:47.307Z,1010.72
2018-06-22T06:16:27.843Z,1010.75
2018-06-22T06:17:08.420Z,1010.76
2018-06-22T06:17:48.965Z,1010.77
2018-06-22T06:18:29.553Z,1010.74
2018-06-22T06:19:10.111Z,1010.75
2018-06-22T06:19:50.687Z,1010.79
2018-06-22T06:20:31.295Z,1010.73
2018-06-22T06:21:11.858Z,1010.75
2018-06-22T06:21:52.407Z,1010.72
2018-06-22T06:22:33.039Z,1010.74
2018-06-22T06:23:13.597Z,1010.75
2018-06-22T06:23:54.175Z,1010.75
2018-06-22T06:24:34.724Z,1010.74
2018-06-22T06:25:15.292Z,1010.79
2018-06-22T06:25:55.845Z,1010.81
2018-06-22T06:26:36.418Z,1010.78
2018-06-22T06:27:17.019Z,1010.81
2018-06-22T06:27:57.538Z,1010.81
2018-06-22T06:28:38.138Z,1010.83
2018-06-22T06:29:18.694Z,1010.8
2018-06-22T06:29:59.252Z,1010.79
2018-06-22T06:30:39.814Z,1010.78
2018-06-22T06:31:20.350Z,1010.76
2018-06-22T06:32:00.924Z,1010.75
2018-06-22T06:32:41.464Z,1010.73
2018-06-22T06:33:22.055Z,1010.77
2018-06-22T06:34:02.691Z,1010.75
2018-06-22T06:34:43.247Z,1010.76
2018-06-22T06:35:23.828Z,1010.71
2018-06-22T06:36:04.377Z,1010.74
2018-06-22T06:36:44.926Z,1010.73
2018-06-22T06:37:25.483Z,1010.73
2018-06-22T06:38:06.041Z,1010.74
2018-06-22T06:38:46.613Z,1010.75
2018-06-22T06:39:27.169Z,1010.77
2018-06-22T06:40:07.703Z,1010.79
2018-06-22T06:40:48.264Z,1010.8
2018-06-22T06:41:28.814Z,1010.8
2018-06-22T06:42:09.369Z,1010.78
2018-06-22T06:42:49.891Z,1010.8
2018-06-22T06:43:30.445Z,1010.79
2018-06-22T06:44:11.008Z,1010.81
2018-06-22T06:44:51.554Z,1010.79
2018-06-22T06:45:32.082Z,1010.8
2018-06-22T06:46:12.668Z,1010.77
2018-06-22T06:46:53.227Z,1010.74
2018-06-22T06:47:33.788Z,1010.76
2018-06-22T06:48:14.341Z,1010.74
2018-06-22T06:48:54.984Z,1010.74
2018-06-22T06:49:35.545Z,1010.8
2018-06-22T06:50:16.090Z,1010.77
2018-06-22T06:50:56.656Z,1010.76
2018-06-22T06:51:37.210Z,1010.78
2018-06-22T06:52:17.766Z,1010.75
2018-06-22T06:52:58.347Z,1010.75
2018-06-22T06:53:38.911Z,1010.72
2018-06-22T06:54:19.596Z,1010.71
2018-06-22T06:55:00.149Z,1010.76
2018-06-22T06:55:40.704Z,1010.82
2018-06-22T06:56:21.259Z,1010.78
2018-06-22T06:57:01.835Z,1010.79
2018-06-22T06:57:42.429Z,1010.8
2018-06-22T06:58:22.997Z,1010.8
2018-06-22T06:59:03.543Z,1010.81
2018-06-22T06:59:44.102Z,1010.78
2018-06-22T07:00:24.653Z,1010.79
2018-06-22T07:01:05.228Z,1010.77
2018-06-22T07:01:45.793Z,1010.83
2018-06-22T07:02:26.409Z,1010.85
2018-06-22T07:03:06.951Z,1010.8
2018-06-22T07:03:47.479Z,1010.81
2018-06-22T07:04:28.046Z,1010.82
2018-06-22T07:05:08.586Z,1010.86
2018-06-22T07:05:49.156Z,1010.82
2018-06-22T07:06:29.737Z,1010.87
2018-06-22T07:07:10.310Z,1010.86
2018-06-22T07:07:50.926Z,1010.81
2018-06-22T07:08:31.540Z,1010.84
2018-06-22T07:09:12.065Z,1010.84
2018-06-22T07:09:52.620Z,1010.87
2018-06-22T07:10:33.199Z,1010.86
2018-06-22T07:11:13.762Z,1010.88
2018-06-22T07:11:54.349Z,1010.86
2018-06-22T07:12:34.900Z,1010.85
2018-06-22T07:13:15.453Z,1010.9
2018-06-22T07:13:56.016Z,1010.9
2018-06-22T07:14:36.580Z,1010.87
2018-06-22T07:15:17.143Z,1010.9
2018-06-22T07:15:57.700Z,1010.97
2018-06-22T07:16:38.263Z,1010.93
2018-06-22T07:17:18.853Z,1010.9
2018-06-22T07:17:59.444Z,1010.95
2018-06-22T07:18:39.992Z,1010.94
2018-06-22T07:19:20.560Z,1010.96
2018-06-22T07:20:01.111Z,1010.98
2018-06-22T07:20:41.667Z,1011.03
2018-06-22T07:21:22.239Z,1011.04
2018-06-22T07:22:02.816Z,1010.97
2018-06-22T07:22:43.375Z,1010.98
2018-06-22T07:23:23.993Z,1011.01
2018-06-22T07:24:04.561Z,1011.03
2018-06-22T07:24:45.166Z,1011.07
2018-06-22T07:25:25.726Z,1011.05
2018-06-22T07:26:06.301Z,1011.1
2018-06-22T07:26:46.861Z,1011.04
2018-06-22T07:27:27.433Z,1011.12
2018-06-22T07:28:08.029Z,1011.04
2018-06-22T07:28:48.607Z,1011.06
2018-06-22T07:29:29.165Z,1011.07
2018-06-22T07:30:09.723Z,1011.06
2018-06-22T07:30:50.262Z,1011.12
2018-06-22T07:31:30.826Z,1011.12
2018-06-22T07:32:11.389Z,1011.07
2018-06-22T07:32:51.948Z,1011.07
2018-06-22T07:33:32.533Z,1011.06
2018-06-22T07:34:13.103Z,1011.03
2018-06-22T07:34:53.670Z,1011.07
2018-06-22T07:35:34.243Z,1011
2018-06-22T07:36:14.823Z,1011.06
2018-06-22T07:36:55.383Z,1011.06
2018-06-22T07:37:35.956Z,1011.07
2018-06-22T07:38:16.928Z,1011.07
2018-06-22T07:38:57.551Z,1011.08
2018-06-22T07:39:38.123Z,1011.05
2018-06-22T07:40:18.699Z,1011.09
2018-06-22T07:40:59.365Z,1011.06
2018-06-22T07:41:39.903Z,1011.05
2018-06-22T07:42:20.618Z,1011.06
2018-06-22T07:43:01.210Z,1011.04
2018-06-22T07:43:41.774Z,1011.04
2018-06-22T07:44:22.354Z,1011.07
2018-06-22T07:45:02.948Z,1011.04
2018-06-22T07:45:43.630Z,1011.05
2018-06-22T07:46:24.170Z,1011.08
2018-06-22T07:47:04.743Z,1011.08
2018-06-22T07:47:45.322Z,1011.08
2018-06-22T07:48:25.895Z,1011.07
2018-06-22T07:49:06.465Z,1011.06
2018-06-22T07:49:47.037Z,1011.05
2018-06-22T07:50:27.582Z,1011.04
2018-06-22T07:51:08.139Z,1011.11
2018-06-22T07:51:48.691Z,1011.1
2018-06-22T07:52:29.247Z,1011.06
2018-06-22T07:53:09.803Z,1011.09
2018-06-22T07:53:50.344Z,1011.05
2018-06-22T07:54:30.891Z,1011.11
2018-06-22T07:55:11.492Z,1011.11
2018-06-22T07:55:52.027Z,1011.13
2018-06-22T07:56:32.603Z,1011.08
2018-06-22T07:57:13.246Z,1011.09
2018-06-22T07:57:53.799Z,1011.13
2018-06-22T07:58:34.305Z,1011.08
2018-06-22T07:59:14.827Z,1011.11
2018-06-22T07:59:55.382Z,1011.11
2018-06-22T08:00:35.940Z,1011.11
2018-06-22T08:01:16.495Z,1011.13
2018-06-22T08:01:57.063Z,1011.11
2018-06-22T08:02:37.621Z,1011.16
2018-06-22T08:03:18.194Z,1011.14
2018-06-22T08:03:58.755Z,1011.14
2018-06-22T08:04:39.323Z,1011.15
2018-06-22T08:05:19.879Z,1011.09
2018-06-22T08:06:00.440Z,1011.15
2018-06-22T08:06:40.981Z,1011.18
2018-06-22T08:07:21.540Z,1011.16
2018-06-22T08:08:02.204Z,1011.2
2018-06-22T08:08:42.751Z,1011.23
2018-06-22T08:09:23.310Z,1011.14
2018-06-22T08:10:03.885Z,1011.17
2018-06-22T08:10:44.441Z,1011.16
2018-06-22T08:11:24.999Z,1011.21
2018-06-22T08:12:05.598Z,1011.16
2018-06-22T08:12:46.332Z,1011.15
2018-06-22T08:13:26.902Z,1011.15
2018-06-22T08:14:07.522Z,1011.14
2018-06-22T08:14:48.006Z,1011.19